メインページ
METAR-TAF:

METAR-TAF

空港 :

タシュケント, ウズベキスタン

タシュケント国際空港

緯度: 41-16N, 経度: 069-16E, 海抜: 489m

現時点の気象観測

当レポートは36分前の23:00(UTC)に作成
北東の風 6kt
気温 16°C
湿度 45%
気圧 1016 hPa
視程10km以上
1,500メートル以下は雲なし、積乱雲なし

METAR: UTTT 232300Z 05006KT CAVOK 16/04 Q1016 R08R/CLRD70 NOSIG

時間: 04:36 (23:36 UTC)

予報

当レポートは6時間36分前の17:00(UTC)に作成
予報は23日の 18時(UTC)から 24日の 18時(UTC)まで有効
北東の風 10kt
視程: 7000m
23日の 18時(UTC)から 24日の 04時(UTC)まで一時的に
北/北西の風 15kt、最大25ktの突風を伴う
高度6000ftの雲はほとんどない, 積乱雲.
高度10000ftの雲は散在している

TAF: UTTT 231700Z 2318/2418 04010KT 7000 NSC TEMPO 2318/2404 34015G25KT FEW060CB SCT100

4,000以上の空港の気象観測と天気予報(METAR報とTAF報)

利用可能な観測所は地図上に黄色い丸と赤い丸で示す。

丸の上にカーソルを重ねると観測所名を参照できる。

次にクリックすると気象観測と天気予報を参照できる。

マップの切り替え:黒色「×」印の緑ボタンをクリックして拡大、「-」印の緑ボタンをクリックして縮小、緑色の三角印をクリックして隣りの地図に切り替え


METAR-TAF: